Latest Coastal Weather Observations for Red Rocks Point

IDW60701

Issued at 11:03 am WST Friday 18 August 2017 (issued every 10 minutes, with the page automatically refreshed every 10 minutes)

About coastal observations | Map of coastal stations | Coastal observations for WA | Marine services | Other Formats
Station Details ID: 011053 Name: RED ROCKS POINT Lat: -32.20 Lon: 127.53 Height: 3.1 m
Data from the previous 72 hours. | See also: Recent months at Red Rocks Point
Date/Time
WST
Temp
°C
Wind Pressure Rain since
9am
mm
Weather Cloud Vis
km
Sea
Height
m
Swell
Dir  Spd
kts
Gust
kts
hPa Trend Height
m
Period
s
Dir
18/11:00am 16.2 ESE 11 13 1026.0 - 0.0 - - - - - - -
18/10:30am 16.4 ESE 11 14 1026.4 - 0.0 - - - - - - -
18/10:00am 18.6 NNE 7 11 1026.7 - 0.0 - - - - - - -
18/09:30am 17.2 NNE 8 11 1026.9 - 0.0 - - - - - - -
18/09:00am 15.0 NNE 9 11 1026.9 - 0.0 - - - - - - -
18/08:30am 13.4 NNE 8 12 1027.0 - 0.0 - - - - - - -
18/08:00am 10.9 N 9 12 1026.7 - 0.0 - - - - - - -
18/07:30am 8.6 N 9 11 1026.4 - 0.0 - - - - - - -
18/07:00am 7.1 N 9 11 1026.1 - 0.0 - - - - - - -
18/06:30am 5.2 NNW 10 11 1025.8 - 0.0 - - - - - - -
18/06:00am 4.6 NNW 9 11 1025.5 - 0.0 - - - - - - -
18/05:30am 4.5 NNW 9 10 1025.2 - 0.0 - - - - - - -
18/05:00am 4.5 NNW 9 10 1025.0 - 0.0 - - - - - - -
18/04:30am 4.4 NNW 10 11 1024.7 - 0.0 - - - - - - -
18/04:00am 3.9 NNW 9 10 1024.4 - 0.0 - - - - - - -
18/03:30am 4.2 NNW 10 11 1024.2 - 0.0 - - - - - - -
18/03:00am 4.5 NNW 10 11 1024.2 - 0.0 - - - - - - -
18/02:30am 5.1 NNW 10 13 1024.1 - 0.0 - - - - - - -
18/02:00am 5.1 N 10 12 1023.8 - 0.0 - - - - - - -
18/01:30am 5.1 N 10 11 1023.6 - 0.0 - - - - - - -
18/01:00am 5.3 N 10 11 1023.8 - 0.0 - - - - - - -
18/12:30am 5.3 N 10 11 1023.7 - 0.0 - - - - - - -
18/12:00am 5.7 NNW 7 8 1023.6 - 0.0 - - - - - - -
 
Date/Time
WST
Temp
°C
Wind Pressure Rain since
9am
mm
Weather Cloud Vis
km
Sea
Height
m
Swell
Dir  Spd
kts
Gust
kts
hPa Trend Height
m
Period
s
Dir
17/11:30pm 6.0 NNW 7 7 1023.7 - 0.0 - - - - - - -
17/11:00pm 6.0 N 6 9 1023.4 - 0.0 - - - - - - -
17/10:30pm 6.4 NNW 5 6 1023.5 - 0.0 - - - - - - -
17/10:00pm 6.6 NNW 5 8 1023.4 - 0.0 - - - - - - -
17/09:30pm 6.9 NW 4 6 1023.4 - 0.0 - - - - - - -
17/09:00pm 7.1 NW 6 7 1023.5 - 0.0 - - - - - - -
17/08:30pm 6.7 WNW 4 6 1023.3 - 0.0 - - - - - - -
17/08:00pm 7.1 SW 4 4 1023.1 - 0.0 - - - - - - -
17/07:30pm 9.5 SSW 5 6 1022.8 - 0.0 - - - - - - -
17/07:00pm 10.8 SSW 7 8 1022.5 - 0.0 - - - - - - -
17/06:30pm 11.2 SW 6 7 1022.2 - 0.0 - - - - - - -
17/06:00pm 11.7 SW 6 7 1021.8 - 0.0 - - - - - - -
17/05:30pm 12.2 SW 6 8 1021.5 - 0.0 - - - - - - -
17/05:00pm 12.8 WSW 7 9 1021.2 - 0.0 - - - - - - -
17/04:30pm 13.9 SW 9 14 1020.8 - 0.0 - - - - - - -
17/04:00pm 14.7 WSW 11 17 1020.6 - 0.0 - - - - - - -
17/03:30pm 15.4 WSW 11 17 1020.3 - 0.0 - - - - - - -
17/03:00pm 15.6 WSW 11 18 1020.0 - 0.0 - - - - - - -
17/02:30pm 15.7 WSW 14 19 1019.9 - 0.0 - - - - - - -
17/02:00pm 15.9 WSW 12 20 1019.7 - 0.0 - - - - - - -
17/01:30pm 16.2 WSW 14 20 1019.6 - 0.0 - - - - - - -
17/01:00pm 16.2 WSW 14 21 1019.5 - 0.0 - - - - - - -
17/12:30pm 16.0 WSW 15 23 1019.4 - 0.0 - - - - - - -
17/12:00pm 16.0 WSW 14 20 1019.3 - 0.0 - - - - - - -
17/11:30am 15.7 WSW 16 22 1019.5 - 0.0 - - - - - - -
17/11:00am 15.5 WSW 15 23 1019.5 - 0.0 - - - - - - -
17/10:30am 15.6 WSW 15 24 1019.4 - 0.0 - - - - - - -
17/10:01am 15.0 WSW 15 25 1019.2 - 0.0 - - - - - - -
17/10:00am 15.1 WSW 15 23 1019.2 - 0.0 - - - - - - -
17/09:30am 14.5 WSW 15 23 1019.1 - 0.0 - - - - - - -
17/09:00am 14.2 WSW 13 21 1018.9 - 0.0 - - - - - - -
17/08:30am 13.1 W 9 14 1018.6 - 0.0 - - - - - - -
17/08:00am 11.4 W 11 19 1018.3 - 0.0 - - - - - - -
17/07:30am 9.7 WNW 9 14 1018.0 - 0.0 - - - - - - -
17/07:00am 8.0 NW 8 13 1017.6 - 0.0 - - - - - - -
17/06:30am 6.8 NW 9 11 1017.3 - 0.0 - - - - - - -
17/06:00am 6.5 NW 7 10 1016.8 - 0.0 - - - - - - -
17/05:30am 7.1 NW 8 10 1016.3 - 0.0 - - - - - - -
17/05:00am 7.3 WNW 8 12 1016.0 - 0.0 - - - - - - -
17/04:30am 7.0 WNW 9 13 1015.6 - 0.0 - - - - - - -
17/04:00am 6.5 NW 7 10 1015.4 - 0.0 - - - - - - -
17/03:30am 7.3 NW 7 11 1015.0 - 0.0 - - - - - - -
17/03:00am 8.5 NW 6 9 1014.8 - 0.0 - - - - - - -
17/02:30am 10.6 W 10 17 1014.4 - 0.0 - - - - - - -
17/02:00am 9.7 W 10 17 1014.3 - 0.0 - - - - - - -
17/01:30am 7.3 NNW 7 9 1014.4 - 0.0 - - - - - - -
17/01:00am 8.1 WNW 8 10 1014.3 - 0.0 - - - - - - -
17/12:30am 8.4 NW 7 9 1014.1 - 0.0 - - - - - - -
17/12:00am 8.4 NW 8 9 1014.1 - 0.0 - - - - - - -
 
Date/Time
WST
Temp
°C
Wind Pressure Rain since
9am
mm
Weather Cloud Vis
km
Sea
Height
m
Swell
Dir  Spd
kts
Gust
kts
hPa Trend Height
m
Period
s
Dir
16/11:30pm 8.5 NW 8 9 1014.1 - 0.0 - - - - - - -
16/11:00pm 9.4 NW 7 8 1014.0 - 0.0 - - - - - - -
16/10:30pm 10.6 WNW 6 7 1014.2 - 0.0 - - - - - - -
16/10:00pm 11.7 WNW 5 7 1014.1 - 0.0 - - - - - - -
16/09:30pm 10.8 WNW 6 7 1013.8 - 0.0 - - - - - - -
16/09:00pm 12.3 NW 6 9 1013.9 - 0.0 - - - - - - -
16/08:30pm 12.8 W 5 7 1013.5 - 0.0 - - - - - - -
16/08:00pm 13.4 W 6 8 1013.3 - 0.0 - - - - - - -
16/07:30pm 14.2 W 8 11 1013.0 - 0.0 - - - - - - -
16/07:00pm 13.1 WNW 6 8 1012.5 - 0.0 - - - - - - -
16/06:30pm 13.3 WNW 4 5 1012.2 - 0.0 - - - - - - -
16/06:00pm 15.6 WNW 6 8 1011.9 - 0.0 - - - - - - -
16/05:30pm 16.8 W 8 14 1011.4 - 0.0 - - - - - - -
16/05:00pm 17.6 WNW 10 20 1011.0 - 0.0 - - - - - - -
16/04:30pm 18.0 WNW 11 17 1010.6 - 0.0 - - - - - - -
16/04:00pm 18.8 WNW 13 22 1010.2 - 0.0 - - - - - - -
16/03:30pm 17.7 WSW 10 16 1010.1 - 0.0 - - - - - - -
16/03:00pm 17.6 WSW 10 15 1010.1 - 0.0 - - - - - - -
16/02:30pm 17.6 SW 12 19 1010.0 - 0.0 - - - - - - -
16/02:00pm 17.1 WSW 11 18 1010.1 - 0.0 - - - - - - -
16/01:30pm 18.3 SW 13 19 1010.0 - 0.0 - - - - - - -
16/01:00pm 17.2 WSW 14 22 1010.3 - 0.0 - - - - - - -
16/12:30pm 18.9 WSW 11 19 1010.7 - 0.0 - - - - - - -
16/12:00pm 18.8 WNW 15 22 1010.9 - 0.0 - - - - - - -
16/11:30am 18.5 W 13 20 1011.3 - 0.0 - - - - - - -
16/11:00am 18.2 W 13 21 1011.8 - 0.0 - - - - - - -
16/10:30am 17.0 WNW 12 22 1012.1 - 0.0 - - - - - - -
16/10:00am 16.7 WNW 12 21 1012.3 - 0.0 - - - - - - -
16/09:30am 15.7 WNW 12 19 1012.4 - 0.0 - - - - - - -
16/09:00am 14.7 WNW 13 21 1012.6 - 0.0 - - - - - - -
16/08:30am 14.2 WNW 12 19 1012.6 - 0.0 - - - - - - -
16/08:00am 12.3 WNW 11 17 1012.6 - 0.0 - - - - - - -
16/07:30am 10.2 NW 10 14 1012.6 - 0.0 - - - - - - -
16/07:00am 8.4 NW 9 14 1012.6 - 0.0 - - - - - - -
16/06:30am 7.2 NW 8 11 1012.4 - 0.0 - - - - - - -
16/06:00am 6.9 NW 7 10 1012.1 - 0.0 - - - - - - -
16/05:30am 7.2 WNW 8 12 1011.9 - 0.0 - - - - - - -
16/05:00am 6.8 NW 8 11 1011.7 - 0.0 - - - - - - -
16/04:30am 6.4 NW 7 9 1011.6 - 0.0 - - - - - - -
16/04:00am 6.4 NW 7 9 1011.5 - 0.0 - - - - - - -
16/03:30am 7.1 NW 9 14 1011.6 - 0.0 - - - - - - -
16/03:00am 7.1 NW 7 12 1011.7 - 0.0 - - - - - - -
16/02:30am 7.0 NW 7 10 1012.0 - 0.0 - - - - - - -
16/02:00am 6.9 NW 7 11 1012.1 - 0.0 - - - - - - -
16/01:30am 7.2 NW 7 9 1012.1 - 0.0 - - - - - - -
16/01:00am 7.5 NW 6 8 1012.3 - 0.0 - - - - - - -
16/12:30am 8.1 NW 7 9 1012.3 - 0.0 - - - - - - -
16/12:00am 8.5 NW 6 8 1012.5 - 0.0 - - - - - - -
 
Date/Time
WST
Temp
°C
Wind Pressure Rain since
9am
mm
Weather Cloud Vis
km
Sea
Height
m
Swell
Dir  Spd
kts
Gust
kts
hPa Trend Height
m
Period
s
Dir
15/11:30pm 8.6 NW 6 8 1012.4 - 0.0 - - - - - - -
15/11:00pm 8.8 NW 6 8 1012.5 - 0.0 - - - - - - -
15/10:30pm 9.3 NW 6 8 1012.7 - 0.0 - - - - - - -
15/10:00pm 9.7 NW 6 8 1012.9 - 0.0 - - - - - - -
15/09:30pm 10.1 NW 7 8 1013.0 - 0.0 - - - - - - -
15/09:00pm 10.2 WNW 6 8 1013.1 - 0.0 - - - - - - -
15/08:30pm 11.3 WNW 6 9 1013.0 - 0.0 - - - - - - -
15/08:00pm 12.9 WNW 6 9 1012.9 - 0.0 - - - - - - -
15/07:30pm 13.6 W 9 11 1012.8 - 0.0 - - - - - - -
15/07:00pm 13.9 WSW 11 15 1012.6 - 0.0 - - - - - - -
15/06:30pm 14.2 WSW 11 16 1012.1 - 0.0 - - - - - - -
15/06:00pm 15.0 WSW 11 17 1011.3 - 0.0 - - - - - - -
15/05:30pm 15.5 WSW 11 17 1010.3 - 0.0 - - - - - - -
15/05:00pm 16.6 WSW 11 19 1009.7 - 0.0 - - - - - - -
15/04:30pm 16.9 WSW 13 19 1009.2 - 0.0 - - - - - - -
15/04:00pm 17.6 WSW 15 30 1008.7 - 0.0 - - - - - - -
15/03:30pm 19.0 W 18 31 1008.3 - 0.0 - - - - - - -
15/03:00pm 18.2 W 18 32 1008.0 - 0.0 - - - - - - -
15/02:30pm 20.7 W 15 29 1007.3 - 0.0 - - - - - - -
15/02:00pm 21.2 WNW 17 30 1007.1 - 0.0 - - - - - - -
15/01:30pm 20.8 W 15 29 1006.5 - 0.0 - - - - - - -
15/01:00pm 20.6 WNW 16 27 1006.5 - 0.0 - - - - - - -
15/12:30pm 20.6 WNW 17 32 1006.8 - 0.0 - - - - - - -
15/12:00pm 20.2 WNW 17 27 1007.0 - 0.0 - - - - - - -
15/11:30am 20.1 W 16 27 1007.5 - 0.0 - - - - - - -

Other Formats:

Comma delimited format used in spreadsheet applications
http://www.bom.gov.au/fwo/IDW60701/IDW60701.94644.axf

JavaScript Object Notation format (JSON) in row-major order
http://www.bom.gov.au/fwo/IDW60701/IDW60701.94644.json